Time;durP1;ratioP1;P1;durP2;ratioP2;P2;SDS_P1;SDS_P2;PMS_P1;PMS_P2;Temp;Humidity;BMP_temperature;BMP_pressure;BME280_temperature;BME280_humidity;BME280_pressure;Samples;Min_cycle;Max_cycle;Signal;HPM_P1;HPM_P2
2023/06/02 00:01:14;;;;;;;4.65;3.42;;;;;;;25.80;35.14;101030.72;143726;624;46924;-71
2023/06/02 00:03:42;;;;;;;7.12;3.30;;;;;;;25.79;34.70;101029.09;143729;586;46004;-71
2023/06/02 00:06:11;;;;;;;7.00;3.95;;;;;;;25.78;34.88;101021.13;143725;598;46011;-71
2023/06/02 00:08:40;;;;;;;6.10;3.60;;;;;;;25.78;34.72;101023.87;143729;606;46004;-71
2023/06/02 00:11:10;;;;;;;5.55;3.58;;;;;;;25.79;34.56;101026.34;143724;593;47006;-70
2023/06/02 00:13:37;;;;;;;6.43;3.60;;;;;;;25.78;34.67;101029.38;143727;622;47000;-71
2023/06/02 00:16:04;;;;;;;5.62;3.65;;;;;;;25.76;35.48;101020.59;143721;585;46008;-72
2023/06/02 00:18:36;;;;;;;5.57;3.40;;;;;;;25.72;35.15;101023.94;143720;696;46927;-72
2023/06/02 00:21:06;;;;;;;6.45;3.65;;;;;;;25.69;35.07;101018.22;143726;574;46007;-70
2023/06/02 00:23:32;;;;;;;8.32;3.22;;;;;;;25.69;35.16;101024.53;143727;587;47002;-71
2023/06/02 00:26:00;;;;;;;4.35;3.37;;;;;;;25.68;35.39;101019.34;143724;605;46010;-71
2023/06/02 00:28:26;;;;;;;4.45;3.33;;;;;;;25.64;35.62;101023.78;143728;631;46004;-71
2023/06/02 00:30:53;;;;;;;6.25;3.37;;;;;;;25.60;35.35;101014.47;143723;581;48002;-71
2023/06/02 00:33:20;;;;;;;5.80;3.37;;;;;;;25.57;35.60;101019.47;143729;694;46006;-72
2023/06/02 00:35:46;;;;;;;6.20;3.47;;;;;;;25.57;35.85;101019.47;143727;734;46010;-72
2023/06/02 00:38:13;;;;;;;6.72;3.37;;;;;;;25.55;35.02;101013.44;143726;576;46004;-71
2023/06/02 00:40:40;;;;;;;4.78;3.30;;;;;;;25.56;34.94;101017.81;143723;589;46006;-72
2023/06/02 00:43:06;;;;;;;5.87;3.47;;;;;;;25.55;35.51;101018.94;143723;575;46002;-71
2023/06/02 00:45:32;;;;;;;4.95;4.10;;;;;;;25.55;35.40;101010.69;143729;591;46008;-70
2023/06/02 00:48:02;;;;;;;6.60;3.70;;;;;;;25.54;35.15;101022.78;143724;589;47004;-70
2023/06/02 00:50:30;;;;;;;7.62;3.53;;;;;;;25.53;35.37;101020.31;143716;721;47006;-71
2023/06/02 00:52:59;;;;;;;6.12;3.97;;;;;;;25.55;34.96;101015.34;143729;637;46004;-70
2023/06/02 00:55:28;;;;;;;5.70;3.80;;;;;;;25.55;35.18;101012.59;143724;667;47923;-71
2023/06/02 00:57:56;;;;;;;5.82;3.60;;;;;;;25.54;35.43;101013.72;143724;577;48927;-70
2023/06/02 01:00:23;;;;;;;5.70;3.58;;;;;;;25.53;35.27;101010.16;143720;582;48000;-71
2023/06/02 01:02:50;;;;;;;6.60;3.65;;;;;;;25.53;35.21;101009.31;143731;566;46006;-70
2023/06/02 01:05:19;;;;;;;5.75;3.97;;;;;;;25.53;35.08;101020.31;143725;578;46009;-71
2023/06/02 01:07:46;;;;;;;5.25;3.95;;;;;;;25.52;34.30;101011.25;143717;572;47002;-70
2023/06/02 01:10:15;;;;;;;4.90;3.95;;;;;;;25.54;34.16;101011.78;143728;694;46006;-70
2023/06/02 01:12:44;;;;;;;4.70;3.60;;;;;;;25.53;34.43;101004.66;143722;609;47003;-70
2023/06/02 01:15:11;;;;;;;6.00;3.55;;;;;;;25.52;34.53;101008.50;143727;581;46922;-71
2023/06/02 01:17:38;;;;;;;5.25;3.72;;;;;;;25.51;35.02;101006.03;143722;592;47004;-71
2023/06/02 01:20:10;;;;;;;5.55;3.95;;;;;;;25.48;34.77;101012.97;143724;603;47007;-70
2023/06/02 01:22:57;;;;;;;7.82;4.07;;;;;;;25.47;34.72;101003.06;143728;574;46004;-70
2023/06/02 01:25:28;;;;;;;6.68;3.90;;;;;;;25.48;34.76;101012.16;143721;595;47004;-71
2023/06/02 01:27:59;;;;;;;5.85;3.45;;;;;;;25.47;34.89;101005.81;143727;592;46926;-70
2023/06/02 01:30:26;;;;;;;4.47;3.72;;;;;;;25.43;35.01;101005.59;143712;610;50004;-74
2023/06/02 01:33:06;;;;;;;5.12;4.10;;;;;;;25.43;35.21;101007.50;143719;584;47002;-70
2023/06/02 01:35:41;;;;;;;12.00;4.10;;;;;;;25.42;35.11;101009.44;143720;572;46027;-71
2023/06/02 01:38:09;;;;;;;14.43;9.70;;;;;;;25.40;35.41;101017.13;143723;600;48926;-71
2023/06/02 01:40:36;;;;;;;7.97;5.53;;;;;;;25.38;35.65;101004.81;143722;572;47006;-70
2023/06/02 01:43:04;;;;;;;11.90;3.87;;;;;;;25.35;35.54;101002.63;143728;567;46008;-70
2023/06/02 01:45:32;;;;;;;8.77;4.62;;;;;;;25.37;35.67;101008.66;143724;618;46922;-71
2023/06/02 01:48:06;;;;;;;6.32;4.68;;;;;;;25.39;35.54;101010.00;143726;624;46004;-70
2023/06/02 01:50:33;;;;;;;8.23;3.95;;;;;;;25.37;35.83;101014.97;143721;596;48006;-70
2023/06/02 01:52:59;;;;;;;5.62;4.32;;;;;;;25.37;35.88;101009.47;143729;635;46002;-71
2023/06/02 01:55:26;;;;;;;5.78;3.80;;;;;;;25.37;36.30;101014.16;143724;702;46008;-71
2023/06/02 01:57:52;;;;;;;8.15;4.22;;;;;;;25.34;36.03;101012.00;143719;586;46009;-71
2023/06/02 02:00:19;;;;;;;4.43;3.33;;;;;;;25.31;36.32;101010.66;143723;627;46006;-71
2023/06/02 02:02:46;;;;;;;8.35;3.90;;;;;;;25.31;36.27;101013.41;143725;581;46004;-70
2023/06/02 02:05:13;;;;;;;5.87;3.80;;;;;;;25.31;36.54;101010.66;143722;686;46017;-70
2023/06/02 02:07:42;;;;;;;6.43;4.00;;;;;;;25.30;36.40;101010.94;143730;573;46004;-71
2023/06/02 02:10:12;;;;;;;6.97;3.75;;;;;;;25.27;36.73;101015.09;143720;641;47006;-71
2023/06/02 02:12:39;;;;;;;6.72;3.83;;;;;;;25.24;36.89;101019.22;143729;587;46002;-70
2023/06/02 02:15:07;;;;;;;6.50;3.97;;;;;;;25.25;36.76;101034.59;143725;567;47006;-71
2023/06/02 02:17:44;;;;;;;6.15;4.10;;;;;;;25.25;36.22;101042.84;143727;572;46004;-71
2023/06/02 02:20:11;;;;;;;6.87;3.83;;;;;;;25.22;36.84;101039.88;143724;600;46006;-74
2023/06/02 02:22:37;;;;;;;5.82;3.55;;;;;;;25.19;36.54;101038.53;143724;590;46002;-71
2023/06/02 02:25:04;;;;;;;6.30;3.85;;;;;;;25.18;36.20;101042.38;143724;628;46010;-71
2023/06/02 02:27:31;;;;;;;8.23;5.05;;;;;;;25.18;36.34;101038.81;143725;623;46008;-70
2023/06/02 02:29:57;;;;;;;10.13;5.18;;;;;;;25.17;36.40;101029.75;143722;588;47022;-70
2023/06/02 02:32:23;;;;;;;6.03;4.25;;;;;;;25.18;36.10;101044.31;143728;581;46002;-70
2023/06/02 02:34:50;;;;;;;6.82;4.40;;;;;;;25.15;36.38;101039.41;143727;595;46008;-70
2023/06/02 02:37:16;;;;;;;7.80;4.12;;;;;;;25.15;36.58;101037.47;143727;578;46004;-70
2023/06/02 02:39:42;;;;;;;8.45;4.05;;;;;;;25.12;36.03;101027.88;143726;584;47004;-70
2023/06/02 02:42:09;;;;;;;7.60;4.05;;;;;;;25.13;36.60;101029.53;143721;620;47002;-70
2023/06/02 02:44:35;;;;;;;7.72;3.58;;;;;;;25.14;36.44;101030.31;143727;612;46010;-70
2023/06/02 02:47:02;;;;;;;11.27;4.65;;;;;;;25.14;36.81;101024.84;143719;652;46013;-70
2023/06/02 02:49:29;;;;;;;7.47;4.35;;;;;;;25.14;36.65;101030.31;143720;573;46007;-72
2023/06/02 02:51:56;;;;;;;6.12;4.00;;;;;;;25.12;37.17;101030.63;143729;595;46006;-71
2023/06/02 02:54:24;;;;;;;10.60;4.43;;;;;;;25.12;37.30;101030.63;143727;606;46922;-71
2023/06/02 02:56:50;;;;;;;11.57;4.12;;;;;;;25.14;37.68;101041.31;143718;628;46009;-72
2023/06/02 02:59:16;;;;;;;6.70;4.78;;;;;;;25.11;37.90;101044.66;143722;581;47000;-71
2023/06/02 03:01:46;;;;;;;10.43;4.37;;;;;;;25.10;37.45;101041.09;143727;566;46004;-71
2023/06/02 03:04:18;;;;;;;7.75;4.10;;;;;;;25.10;37.82;101046.59;143716;588;47004;-71
2023/06/02 03:06:52;;;;;;;11.55;4.68;;;;;;;25.11;37.63;101042.72;143726;626;46011;-71
2023/06/02 03:09:19;;;;;;;9.88;4.55;;;;;;;25.10;37.36;101043.00;143722;585;48925;-71
2023/06/02 03:11:46;;;;;;;7.12;4.78;;;;;;;25.05;37.57;101041.13;143718;572;47002;-71
2023/06/02 03:14:13;;;;;;;11.75;4.60;;;;;;;25.02;37.59;101038.94;143723;584;47010;-71
2023/06/02 03:16:44;;;;;;;8.60;4.50;;;;;;;25.01;38.19;101039.25;143723;592;46023;-71
2023/06/02 03:19:14;;;;;;;7.82;4.10;;;;;;;24.95;37.43;101039.28;143722;590;46021;-71
2023/06/02 03:21:44;;;;;;;7.50;3.70;;;;;;;24.91;37.55;101040.97;143724;576;47002;-76
2023/06/02 03:24:11;;;;;;;11.57;4.25;;;;;;;24.90;37.38;101036.56;143723;594;46010;-72
2023/06/02 03:26:45;;;;;;;10.73;4.62;;;;;;;24.87;37.93;101048.16;143724;588;47004;-71
2023/06/02 03:29:12;;;;;;;7.30;4.27;;;;;;;24.85;38.40;101046.78;143723;576;47924;-71
2023/06/02 03:31:41;;;;;;;11.35;4.10;;;;;;;24.81;38.30;101049.31;143724;598;47006;-71
2023/06/02 03:34:08;;;;;;;10.55;4.45;;;;;;;24.79;38.16;101055.09;143723;572;46010;-71
2023/06/02 03:36:37;;;;;;;11.75;4.70;;;;;;;24.78;38.06;101047.13;143718;569;47004;-71
2023/06/02 03:39:07;;;;;;;10.43;4.30;;;;;;;24.76;38.47;101038.34;143721;615;47006;-70
2023/06/02 03:41:35;;;;;;;8.95;4.60;;;;;;;24.75;37.93;101033.97;143713;581;47002;-72
2023/06/02 03:44:02;;;;;;;8.00;4.03;;;;;;;24.75;38.81;101047.69;143717;567;47008;-71
2023/06/02 03:46:29;;;;;;;12.40;4.53;;;;;;;24.75;39.18;101040.28;143717;579;47004;-71
2023/06/02 03:48:56;;;;;;;8.85;4.60;;;;;;;24.76;38.70;101044.69;143713;615;47007;-71
2023/06/02 03:51:22;;;;;;;11.32;4.25;;;;;;;24.77;38.65;101043.56;143720;639;47002;-71
2023/06/02 03:53:49;;;;;;;8.45;4.37;;;;;;;24.80;39.12;101047.66;143714;614;47006;-72
2023/06/02 03:56:15;;;;;;;8.70;4.60;;;;;;;24.81;39.10;101041.06;143714;613;48927;-72
2023/06/02 03:58:42;;;;;;;8.15;4.00;;;;;;;24.85;39.09;101044.06;143716;587;47006;-71
2023/06/02 04:01:08;;;;;;;14.38;5.47;;;;;;;24.85;38.90;101038.56;143707;607;47008;-71
2023/06/02 04:03:37;;;;;;;11.32;4.90;;;;;;;24.87;38.22;101039.94;143717;591;47010;-72
2023/06/02 04:06:06;;;;;;;13.73;5.18;;;;;;;24.90;38.60;101031.09;143716;595;47004;-71
2023/06/02 04:08:33;;;;;;;9.55;5.05;;;;;;;24.94;38.52;101034.09;143713;627;47006;-71
2023/06/02 04:11:00;;;;;;;22.70;5.32;;;;;;;24.95;38.83;101031.03;143708;585;47008;-71
2023/06/02 04:13:27;;;;;;;10.80;4.37;;;;;;;24.97;39.04;101031.59;143712;595;48010;-72
2023/06/02 04:15:53;;;;;;;13.20;5.18;;;;;;;25.01;38.87;101033.75;143714;632;47004;-72
2023/06/02 04:18:19;;;;;;;13.35;5.50;;;;;;;25.05;38.86;101032.09;143717;614;47008;-71
2023/06/02 04:20:46;;;;;;;9.13;5.20;;;;;;;25.07;38.08;101027.09;143714;589;47008;-71
2023/06/02 04:23:13;;;;;;;10.02;4.57;;;;;;;25.09;38.32;101036.69;143714;587;47006;-71
2023/06/02 04:25:39;;;;;;;10.48;4.45;;;;;;;25.12;38.12;101040.78;143714;594;47010;-71
2023/06/02 04:28:07;;;;;;;7.50;4.40;;;;;;;25.16;37.63;101041.84;143715;589;47006;-71
2023/06/02 04:30:36;;;;;;;15.77;4.22;;;;;;;25.22;38.29;101037.13;143715;608;48000;-71
2023/06/02 04:33:03;;;;;;;7.03;4.47;;;;;;;25.26;37.23;101052.75;143716;567;47002;-71
2023/06/02 04:35:30;;;;;;;11.63;5.60;;;;;;;25.29;37.85;101045.84;143714;573;47002;-71
2023/06/02 04:37:56;;;;;;;15.35;4.55;;;;;;;25.32;37.42;101056.28;143712;605;47004;-71
2023/06/02 04:40:23;;;;;;;11.80;4.25;;;;;;;25.36;37.82;101051.81;143694;577;49007;-70
2023/06/02 04:42:49;;;;;;;9.40;4.50;;;;;;;25.38;37.80;101049.59;143715;637;47010;-70
2023/06/02 04:45:16;;;;;;;10.80;4.95;;;;;;;25.41;36.93;101043.53;143720;625;47004;-70
2023/06/02 04:47:42;;;;;;;14.57;5.30;;;;;;;25.44;36.06;101055.88;143711;645;47006;-71
2023/06/02 04:50:12;;;;;;;11.75;5.50;;;;;;;25.47;36.18;101049.81;143713;569;47008;-72
2023/06/02 04:52:42;;;;;;;13.70;5.70;;;;;;;25.50;35.78;101051.19;143717;572;47010;-70
2023/06/02 04:55:09;;;;;;;13.80;5.85;;;;;;;25.53;35.46;101056.06;143716;618;47004;-70
2023/06/02 04:57:36;;;;;;;15.20;5.72;;;;;;;25.54;35.38;101047.56;143713;567;47006;-70
2023/06/02 05:00:04;;;;;;;12.50;5.72;;;;;;;25.57;35.25;101043.37;143714;595;47006;-71
2023/06/02 05:02:31;;;;;;;13.93;6.03;;;;;;;25.58;35.80;101036.78;143715;591;47007;-70
2023/06/02 05:04:58;;;;;;;14.30;4.75;;;;;;;25.61;35.88;101033.44;143713;575;47004;-71
2023/06/02 05:07:24;;;;;;;12.93;5.18;;;;;;;25.64;36.26;101041.13;143717;610;47004;-70
2023/06/02 05:09:50;;;;;;;8.32;4.85;;;;;;;25.65;36.17;101030.91;143720;579;47007;-70
2023/06/02 05:12:18;;;;;;;10.82;5.28;;;;;;;25.66;36.17;101046.31;143715;572;47011;-70
2023/06/02 05:14:45;;;;;;;14.63;5.97;;;;;;;25.68;35.28;101039.38;143703;588;47004;-70
2023/06/02 05:17:11;;;;;;;10.50;5.45;;;;;;;25.70;34.91;101048.19;143713;567;47004;-70
2023/06/02 05:19:41;;;;;;;12.63;5.32;;;;;;;25.75;35.03;101040.97;143717;585;47002;-70
2023/06/02 05:22:07;;;;;;;9.75;5.30;;;;;;;25.77;35.20;101034.06;143716;575;47010;-70
2023/06/02 05:24:34;;;;;;;7.00;4.47;;;;;;;25.80;34.60;101041.72;143715;590;47005;-70
2023/06/02 05:27:00;;;;;;;9.50;4.90;;;;;;;25.84;35.53;101048.28;143713;596;47006;-70
2023/06/02 05:29:26;;;;;;;17.15;5.55;;;;;;;25.88;35.14;101048.50;143712;672;47008;-70
2023/06/02 05:31:53;;;;;;;9.48;5.05;;;;;;;25.92;34.76;101046.00;143719;593;47008;-71
2023/06/02 05:34:19;;;;;;;8.73;5.00;;;;;;;25.95;35.25;101046.22;143715;648;47008;-74
2023/06/02 05:36:45;;;;;;;9.75;5.20;;;;;;;26.00;35.07;101053.59;143718;591;47006;-70
2023/06/02 05:39:11;;;;;;;18.12;5.20;;;;;;;26.02;35.10;101049.47;143716;573;47002;-71
2023/06/02 05:41:38;;;;;;;9.70;5.30;;;;;;;26.03;35.26;101053.81;143713;585;48006;-70
2023/06/02 05:44:04;;;;;;;17.00;5.50;;;;;;;26.08;34.96;101055.72;143714;566;48015;-71
2023/06/02 05:46:31;;;;;;;11.25;5.10;;;;;;;26.10;34.58;101056.22;143708;574;48006;-70
2023/06/02 05:48:57;;;;;;;14.30;5.20;;;;;;;26.13;35.06;101052.09;143719;699;47005;-71
2023/06/02 05:51:24;;;;;;;8.00;4.72;;;;;;;26.16;34.97;101055.06;143718;637;47010;-71
2023/06/02 05:53:50;;;;;;;12.90;5.22;;;;;;;26.20;35.00;101051.72;143717;591;47006;-71
2023/06/02 05:56:17;;;;;;;7.97;4.60;;;;;;;26.21;35.33;101056.91;143719;590;47008;-71
2023/06/02 05:58:43;;;;;;;10.65;4.90;;;;;;;26.24;36.11;101061.03;143717;569;47012;-70
2023/06/02 06:01:09;;;;;;;15.40;5.85;;;;;;;26.24;35.27;101052.78;143710;675;48012;-71
2023/06/02 06:03:36;;;;;;;7.65;5.25;;;;;;;26.27;35.19;101055.75;143712;694;47011;-71
2023/06/02 06:06:02;;;;;;;10.27;5.87;;;;;;;26.29;35.08;101050.75;143710;585;48004;-72
2023/06/02 06:08:29;;;;;;;15.30;5.30;;;;;;;26.31;35.37;101047.69;143720;618;47006;-77
2023/06/02 06:10:55;;;;;;;11.05;5.45;;;;;;;26.34;35.90;101049.84;143716;626;47012;-73
2023/06/02 06:13:21;;;;;;;9.90;5.37;;;;;;;26.36;34.91;101053.13;143719;594;47006;-73
2023/06/02 06:15:48;;;;;;;15.02;6.00;;;;;;;26.39;35.31;101057.22;143712;592;51014;-73
2023/06/02 06:18:14;;;;;;;8.45;6.30;;;;;;;26.40;34.84;101056.94;143724;569;47006;-72
2023/06/02 06:20:45;;;;;;;15.20;5.97;;;;;;;26.40;34.30;101050.59;143721;588;47008;-72
2023/06/02 06:23:14;;;;;;;12.75;6.03;;;;;;;26.38;34.53;101050.09;143723;592;47004;-72
2023/06/02 06:25:41;;;;;;;13.77;6.03;;;;;;;26.32;34.47;101039.16;143722;593;46006;-72
2023/06/02 06:28:07;;;;;;;10.85;6.32;;;;;;;26.32;34.46;101046.59;143715;573;47002;-72
2023/06/02 06:30:33;;;;;;;17.67;5.90;;;;;;;26.28;35.13;101035.34;143721;702;47010;-73
2023/06/02 06:32:59;;;;;;;8.63;5.40;;;;;;;26.25;34.60;101035.94;143721;657;47006;-72
2023/06/02 06:35:26;;;;;;;12.98;7.37;;;;;;;26.22;34.61;101028.28;143722;657;46006;-72
2023/06/02 06:37:52;;;;;;;11.90;6.50;;;;;;;26.19;35.00;101031.66;143725;588;46006;-72
2023/06/02 06:40:19;;;;;;;9.43;6.30;;;;;;;26.17;35.23;101029.16;143721;598;47008;-73
2023/06/02 06:42:45;;;;;;;10.75;5.25;;;;;;;26.17;35.22;101022.84;143722;589;47004;-73
2023/06/02 06:45:31;;;;;;;9.93;5.53;;;;;;;26.17;35.71;101025.62;143722;578;46006;-72
2023/06/02 06:47:57;;;;;;;11.05;6.82;;;;;;;26.18;35.81;101028.06;143723;654;47002;-72
2023/06/02 06:50:23;;;;;;;10.45;6.07;;;;;;;26.21;35.59;101023.87;143722;588;46922;-73
2023/06/02 06:52:50;;;;;;;9.63;4.28;;;;;;;26.22;36.15;101017.25;143719;709;47004;-72
2023/06/02 06:55:16;;;;;;;5.45;4.60;;;;;;;26.26;36.04;101023.81;143722;578;46007;-72
2023/06/02 06:57:43;;;;;;;4.85;3.62;;;;;;;26.25;35.98;101021.38;143724;588;47000;-71
2023/06/02 07:00:10;;;;;;;5.97;3.78;;;;;;;26.29;36.05;101020.47;143723;592;46010;-71
2023/06/02 07:02:37;;;;;;;4.78;3.25;;;;;;;26.30;35.82;101010.25;143722;567;47008;-72
2023/06/02 07:05:03;;;;;;;7.00;3.72;;;;;;;26.33;36.55;101010.50;143724;664;46006;-72
2023/06/02 07:07:30;;;;;;;3.92;3.55;;;;;;;26.36;37.82;101011.03;143725;595;47002;-72
2023/06/02 07:09:57;;;;;;;5.20;3.10;;;;;;;26.40;36.65;101006.53;143725;581;46009;-72
2023/06/02 07:12:23;;;;;;;6.93;3.47;;;;;;;26.43;36.40;101012.28;143724;581;47002;-72
2023/06/02 07:14:51;;;;;;;4.75;3.62;;;;;;;26.47;36.52;101007.81;143721;567;47006;-73
2023/06/02 07:17:17;;;;;;;4.18;3.28;;;;;;;26.53;37.09;101010.47;143717;662;47002;-72
2023/06/02 07:19:44;;;;;;;3.85;3.20;;;;;;;26.58;36.53;101010.41;143723;584;47010;-72
2023/06/02 07:22:10;;;;;;;4.07;3.53;;;;;;;26.63;35.98;101008.38;143723;606;47004;-72
2023/06/02 07:24:37;;;;;;;7.60;3.58;;;;;;;26.69;36.33;101008.31;143724;572;46007;-72
2023/06/02 07:27:03;;;;;;;5.62;3.65;;;;;;;26.74;36.27;101005.47;143720;651;47004;-72
2023/06/02 07:29:30;;;;;;;4.45;3.28;;;;;;;26.78;35.33;101018.34;143722;596;47010;-65
2023/06/02 07:31:56;;;;;;;32.03;28.30;;;;;;;26.85;34.55;101019.91;143721;579;47004;-64
2023/06/02 07:34:22;;;;;;;6.43;4.78;;;;;;;26.89;34.76;101019.00;143719;649;46006;-65
2023/06/02 07:36:49;;;;;;;15.38;4.53;;;;;;;26.96;35.45;101024.13;143726;576;46006;-65
2023/06/02 07:39:16;;;;;;;4.28;3.67;;;;;;;27.03;35.45;101013.50;143723;630;46026;-65
2023/06/02 07:41:42;;;;;;;5.87;3.60;;;;;;;27.09;35.32;101015.06;143717;572;46010;-66
2023/06/02 07:44:08;;;;;;;3.78;3.37;;;;;;;27.15;35.23;101017.72;143722;629;46925;-66
2023/06/02 07:46:35;;;;;;;7.00;3.03;;;;;;;27.19;35.78;101013.22;143724;616;47002;-66
2023/06/02 07:49:01;;;;;;;4.60;3.28;;;;;;;27.22;35.47;101016.22;143722;584;47011;-65
2023/06/02 07:51:28;;;;;;;8.05;4.25;;;;;;;27.26;36.06;101024.69;143723;714;46926;-65
2023/06/02 07:53:54;;;;;;;7.87;4.05;;;;;;;27.34;35.26;101021.22;143723;615;46022;-66
2023/06/02 07:56:21;;;;;;;6.55;3.72;;;;;;;27.39;34.98;101023.06;143724;574;47002;-66
2023/06/02 07:58:48;;;;;;;4.45;3.37;;;;;;;27.44;34.94;101024.91;143723;666;46010;-64
2023/06/02 08:01:14;;;;;;;5.50;3.87;;;;;;;27.40;35.06;101024.69;143721;673;46995;-66
2023/06/02 08:03:40;;;;;;;8.07;4.35;;;;;;;27.31;35.16;101024.59;143723;732;46006;-66
2023/06/02 08:06:07;;;;;;;6.12;4.10;;;;;;;27.37;34.19;101028.06;143720;718;46009;-67
2023/06/02 08:08:33;;;;;;;9.57;4.65;;;;;;;27.31;35.49;101021.84;143722;587;46010;-65
2023/06/02 08:11:00;;;;;;;11.30;4.53;;;;;;;27.30;35.01;101022.12;143723;735;47002;-67
2023/06/02 08:13:26;;;;;;;7.95;4.22;;;;;;;27.32;34.48;101020.72;143724;593;46006;-66
2023/06/02 08:15:52;;;;;;;9.32;5.03;;;;;;;27.22;35.79;101031.91;143721;700;47002;-66
2023/06/02 08:18:18;;;;;;;6.62;4.57;;;;;;;27.03;36.08;101029.25;143721;696;47008;-67
2023/06/02 08:20:45;;;;;;;9.00;4.90;;;;;;;26.70;37.92;101027.28;143720;567;49004;-66
2023/06/02 08:23:12;;;;;;;7.05;4.97;;;;;;;26.52;38.85;101037.22;143720;636;47006;-67
2023/06/02 08:25:39;;;;;;;13.43;4.75;;;;;;;26.65;38.76;101024.63;143724;602;47004;-66
2023/06/02 08:28:09;;;;;;;11.43;4.78;;;;;;;26.77;36.02;101027.72;143724;642;47004;-66
2023/06/02 08:30:36;;;;;;;10.50;5.45;;;;;;;26.81;35.48;101027.94;143714;580;47004;-67
2023/06/02 08:33:05;;;;;;;9.85;4.68;;;;;;;26.85;36.15;101025.41;143723;604;46007;-66
2023/06/02 08:35:38;;;;;;;11.65;4.85;;;;;;;26.91;36.79;101029.72;143722;572;47004;-67
2023/06/02 08:38:07;;;;;;;10.63;4.35;;;;;;;26.78;35.25;101028.53;143722;600;47008;-67
2023/06/02 08:40:39;;;;;;;6.57;3.78;;;;;;;26.90;35.26;101023.41;143723;645;47004;-66
2023/06/02 08:43:09;;;;;;;10.27;3.78;;;;;;;26.89;34.22;101024.53;143720;664;47002;-66
2023/06/02 08:45:40;;;;;;;6.62;3.50;;;;;;;26.84;33.82;101018.25;143722;570;47003;-67
2023/06/02 08:48:07;;;;;;;7.72;3.67;;;;;;;26.81;34.46;101019.69;143725;600;47004;-67
2023/06/02 08:50:36;;;;;;;7.72;3.55;;;;;;;26.84;34.53;101026.53;143721;633;47010;-67
2023/06/02 08:53:10;;;;;;;8.60;3.90;;;;;;;26.93;33.97;101011.75;143717;634;50924;-67
2023/06/02 08:55:39;;;;;;;4.30;3.20;;;;;;;26.90;33.87;101015.12;143717;663;47004;-68
2023/06/02 08:58:06;;;;;;;5.53;2.97;;;;;;;27.01;33.04;101013.00;143722;670;47010;-66
2023/06/02 09:00:32;;;;;;;7.40;3.58;;;;;;;27.11;33.78;101012.00;143723;703;47004;-66
2023/06/02 09:02:58;;;;;;;6.95;3.40;;;;;;;27.02;33.31;101014.62;143723;656;46006;-66
2023/06/02 09:05:27;;;;;;;7.37;3.55;;;;;;;27.09;33.50;101006.00;143725;577;47002;-66
2023/06/02 09:08:14;;;;;;;5.28;3.30;;;;;;;27.15;33.40;101010.25;143720;602;47007;-66
2023/06/02 09:10:42;;;;;;;6.85;3.25;;;;;;;27.30;32.63;101006.41;143721;584;47927;-66
2023/06/02 09:13:29;;;;;;;8.50;3.50;;;;;;;27.48;33.79;100993.66;143722;686;46006;-67
2023/06/02 09:16:01;;;;;;;5.00;3.22;;;;;;;27.56;33.02;101000.41;143724;676;47002;-67
2023/06/02 09:18:28;;;;;;;4.60;3.40;;;;;;;27.57;32.11;100999.28;143722;621;47010;-66
2023/06/02 09:20:58;;;;;;;4.85;3.22;;;;;;;27.55;32.67;100998.75;143718;591;47004;-67
2023/06/02 09:23:42;;;;;;;5.15;2.97;;;;;;;27.60;32.76;100995.91;143722;567;47004;-67
2023/06/02 09:26:22;;;;;;;4.85;3.33;;;;;;;27.57;32.80;100982.72;143724;729;47002;-66
2023/06/02 09:29:08;;;;;;;4.05;3.20;;;;;;;27.58;32.38;100981.59;143722;632;47010;-68
2023/06/02 09:32:04;;;;;;;7.80;3.10;;;;;;;27.54;33.04;100966.78;143724;596;47004;-66
2023/06/02 09:34:35;;;;;;;8.55;3.30;;;;;;;27.41;32.48;100975.84;143723;604;46006;-66
2023/06/02 09:37:13;;;;;;;4.85;2.97;;;;;;;27.32;32.64;100978.50;143726;617;47004;-66
2023/06/02 09:39:46;;;;;;;6.25;3.15;;;;;;;27.43;32.49;100982.72;143724;620;46027;-66
2023/06/02 09:42:14;;;;;;;4.95;3.30;;;;;;;27.47;31.93;100966.41;143724;681;47004;-65
2023/06/02 09:44:41;;;;;;;6.35;3.20;;;;;;;27.60;32.52;100976.59;143722;746;47005;-66
2023/06/02 09:47:20;;;;;;;5.62;3.58;;;;;;;27.45;31.90;100977.69;143717;663;47002;-66
2023/06/02 09:49:46;;;;;;;5.32;3.00;;;;;;;27.50;32.56;100976.81;143722;572;48922;-65
2023/06/02 09:52:17;;;;;;;7.28;3.70;;;;;;;27.62;32.22;100977.09;143725;636;47004;-65
2023/06/02 09:54:45;;;;;;;6.62;3.53;;;;;;;27.60;31.76;100984.06;143723;625;46006;-65
2023/06/02 09:57:12;;;;;;;6.35;3.30;;;;;;;27.66;31.94;100989.16;143725;586;46006;-65
2023/06/02 09:59:43;;;;;;;5.30;3.53;;;;;;;27.52;32.26;100980.91;143723;624;47010;-66
2023/06/02 10:02:10;;;;;;;5.12;3.50;;;;;;;27.58;32.32;100980.78;143724;577;47004;-65
2023/06/02 10:04:37;;;;;;;4.72;2.80;;;;;;;27.62;31.88;100973.53;143722;581;47002;-64
2023/06/02 10:08:07;;;;;;;4.90;3.20;;;;;;;27.71;32.04;100966.16;143722;604;47002;-66
2023/06/02 10:11:16;;;;;;;5.18;3.20;;;;;;;27.73;32.55;100963.06;143723;567;47010;-65
2023/06/02 10:14:19;;;;;;;4.25;3.50;;;;;;;27.88;33.28;100967.44;143716;591;47004;-64
2023/06/02 10:17:34;;;;;;;4.57;3.75;;;;;;;28.07;32.09;100957.06;143724;595;47008;-65
2023/06/02 10:20:24;;;;;;;8.75;3.72;;;;;;;28.20;31.93;100954.59;143725;596;47002;-64
2023/06/02 10:23:31;;;;;;;7.93;3.80;;;;;;;28.28;31.33;100956.63;143721;573;47006;-65
2023/06/02 10:26:23;;;;;;;6.45;3.35;;;;;;;28.40;31.61;100956.88;143723;607;46008;-65
2023/06/02 10:28:54;;;;;;;7.50;3.45;;;;;;;28.48;31.22;100952.53;143724;588;46006;-66
2023/06/02 10:31:33;;;;;;;7.57;3.40;;;;;;;28.50;31.21;100950.28;143723;618;47002;-65
2023/06/02 10:34:01;;;;;;;7.90;3.65;;;;;;;28.54;31.42;100951.28;143723;597;47004;-65
2023/06/02 10:37:20;;;;;;;5.97;3.25;;;;;;;28.63;30.86;100950.50;143721;588;47004;-66
2023/06/02 10:40:10;;;;;;;4.22;3.20;;;;;;;28.60;30.73;100955.53;143721;582;47925;-66
2023/06/02 10:42:37;;;;;;;5.93;3.17;;;;;;;28.70;31.37;100950.88;143718;594;47004;-66
2023/06/02 10:45:40;;;;;;;5.37;3.47;;;;;;;28.79;31.22;100943.47;143723;580;47010;-64
2023/06/02 10:48:40;;;;;;;5.25;3.37;;;;;;;28.88;30.63;100947.09;143723;666;47002;-66
2023/06/02 10:51:08;;;;;;;5.62;3.50;;;;;;;28.89;30.38;100945.13;143723;574;47002;-67
2023/06/02 10:54:19;;;;;;;4.53;3.40;;;;;;;28.73;30.88;100941.97;143724;628;47000;-66
2023/06/02 10:56:46;;;;;;;5.40;3.03;;;;;;;28.53;30.73;100935.81;143724;597;46922;-67
2023/06/02 10:59:31;;;;;;;5.97;3.55;;;;;;;28.47;31.08;100936.28;143722;575;47004;-67
2023/06/02 11:01:58;;;;;;;5.57;3.37;;;;;;;28.47;30.54;100933.53;143724;662;46925;-66
2023/06/02 11:04:32;;;;;;;4.80;3.00;;;;;;;28.44;30.55;100941.31;143727;572;47004;-66
2023/06/02 11:07:18;;;;;;;;;;;;;;;28.25;30.42;100937.91;143729;985;46010;-68
2023/06/02 11:09:49;;;;;;;5.05;3.37;;;;;;;28.32;31.16;100932.78;143728;602;47002;-67
2023/06/02 11:12:15;;;;;;;5.62;3.55;;;;;;;28.40;30.91;100932.00;143723;614;46006;-67
2023/06/02 11:15:19;;;;;;;4.32;3.00;;;;;;;28.50;31.13;100924.59;143727;591;47000;-68
2023/06/02 11:17:47;;;;;;;4.45;3.62;;;;;;;28.57;30.98;100924.94;143722;580;46010;-67
2023/06/02 11:20:15;;;;;;;8.63;3.60;;;;;;;28.65;31.32;100921.44;143727;597;47002;-71
2023/06/02 11:22:42;;;;;;;6.12;3.40;;;;;;;28.66;30.20;100927.75;143724;568;46017;-68
2023/06/02 11:25:10;;;;;;;4.28;3.00;;;;;;;28.51;30.63;100926.22;143725;601;47004;-66
2023/06/02 11:27:47;;;;;;;5.03;3.40;;;;;;;28.60;31.30;100922.38;143723;578;47010;-66
2023/06/02 11:30:17;;;;;;;5.70;3.33;;;;;;;28.63;31.38;100920.94;143725;588;47004;-67
2023/06/02 11:32:49;;;;;;;7.47;3.40;;;;;;;28.68;30.21;100919.97;143724;586;46006;-67
2023/06/02 11:35:18;;;;;;;5.25;3.05;;;;;;;28.73;30.15;100917.91;143720;597;47006;-67
2023/06/02 11:38:02;;;;;;;6.05;3.28;;;;;;;28.72;29.93;100901.63;143725;583;46007;-66